sensor_id;sensor_type;location;lat;lon;timestamp;temperature;humidity
23560;DHT22;11958;50.836;4.438;2024-03-07T00:01:29;5.60;86.70
23560;DHT22;11958;50.836;4.438;2024-03-07T00:03:57;5.40;86.60
23560;DHT22;11958;50.836;4.438;2024-03-07T00:06:23;5.40;86.70
23560;DHT22;11958;50.836;4.438;2024-03-07T00:08:56;5.10;86.80
23560;DHT22;11958;50.836;4.438;2024-03-07T00:11:22;5.30;87.20
23560;DHT22;11958;50.836;4.438;2024-03-07T00:13:47;5.20;87.50
23560;DHT22;11958;50.836;4.438;2024-03-07T00:16:13;5.00;88.20
23560;DHT22;11958;50.836;4.438;2024-03-07T00:18:39;4.90;89.10
23560;DHT22;11958;50.836;4.438;2024-03-07T00:21:04;5.20;88.60
23560;DHT22;11958;50.836;4.438;2024-03-07T00:23:30;5.10;87.60
23560;DHT22;11958;50.836;4.438;2024-03-07T00:25:57;5.20;86.90
23560;DHT22;11958;50.836;4.438;2024-03-07T00:28:23;5.10;86.60
23560;DHT22;11958;50.836;4.438;2024-03-07T00:30:48;5.00;87.00
23560;DHT22;11958;50.836;4.438;2024-03-07T00:33:14;5.00;87.30
23560;DHT22;11958;50.836;4.438;2024-03-07T00:35:40;5.20;87.70
23560;DHT22;11958;50.836;4.438;2024-03-07T00:38:06;5.50;86.60
23560;DHT22;11958;50.836;4.438;2024-03-07T00:40:32;5.10;86.10
23560;DHT22;11958;50.836;4.438;2024-03-07T00:42:58;4.80;87.30
23560;DHT22;11958;50.836;4.438;2024-03-07T00:45:25;4.90;88.00
23560;DHT22;11958;50.836;4.438;2024-03-07T00:47:51;4.80;88.50
23560;DHT22;11958;50.836;4.438;2024-03-07T00:50:16;4.80;88.70
23560;DHT22;11958;50.836;4.438;2024-03-07T00:52:42;4.50;89.80
23560;DHT22;11958;50.836;4.438;2024-03-07T00:55:08;4.90;89.40
23560;DHT22;11958;50.836;4.438;2024-03-07T00:57:34;5.20;88.40
23560;DHT22;11958;50.836;4.438;2024-03-07T01:00:02;4.80;87.30
23560;DHT22;11958;50.836;4.438;2024-03-07T01:02:29;4.60;88.50
23560;DHT22;11958;50.836;4.438;2024-03-07T01:04:55;4.70;88.80
23560;DHT22;11958;50.836;4.438;2024-03-07T01:07:23;4.70;88.60
23560;DHT22;11958;50.836;4.438;2024-03-07T01:09:49;4.70;88.90
23560;DHT22;11958;50.836;4.438;2024-03-07T01:12:15;4.30;89.50
23560;DHT22;11958;50.836;4.438;2024-03-07T01:14:41;4.60;89.90
23560;DHT22;11958;50.836;4.438;2024-03-07T01:17:06;4.70;89.30
23560;DHT22;11958;50.836;4.438;2024-03-07T01:19:33;4.70;88.90
23560;DHT22;11958;50.836;4.438;2024-03-07T01:21:59;4.80;88.00
23560;DHT22;11958;50.836;4.438;2024-03-07T01:24:25;4.50;88.50
23560;DHT22;11958;50.836;4.438;2024-03-07T01:26:51;4.40;88.80
23560;DHT22;11958;50.836;4.438;2024-03-07T01:29:17;4.50;88.40
23560;DHT22;11958;50.836;4.438;2024-03-07T01:31:43;4.40;88.00
23560;DHT22;11958;50.836;4.438;2024-03-07T01:34:08;4.80;87.50
23560;DHT22;11958;50.836;4.438;2024-03-07T01:36:34;4.80;86.60
23560;DHT22;11958;50.836;4.438;2024-03-07T01:39:00;4.50;87.10
23560;DHT22;11958;50.836;4.438;2024-03-07T01:41:29;4.30;87.70
23560;DHT22;11958;50.836;4.438;2024-03-07T01:43:54;4.50;88.10
23560;DHT22;11958;50.836;4.438;2024-03-07T01:46:20;4.60;88.40
23560;DHT22;11958;50.836;4.438;2024-03-07T01:48:46;4.50;88.10
23560;DHT22;11958;50.836;4.438;2024-03-07T01:51:13;4.30;88.40
23560;DHT22;11958;50.836;4.438;2024-03-07T01:53:39;4.30;89.00
23560;DHT22;11958;50.836;4.438;2024-03-07T01:56:05;4.10;89.30
23560;DHT22;11958;50.836;4.438;2024-03-07T01:58:31;4.10;89.60
23560;DHT22;11958;50.836;4.438;2024-03-07T02:00:58;4.20;89.70
23560;DHT22;11958;50.836;4.438;2024-03-07T02:03:24;4.30;89.40
23560;DHT22;11958;50.836;4.438;2024-03-07T02:05:50;4.70;88.10
23560;DHT22;11958;50.836;4.438;2024-03-07T02:08:17;4.80;86.90
23560;DHT22;11958;50.836;4.438;2024-03-07T02:10:42;4.60;86.40
23560;DHT22;11958;50.836;4.438;2024-03-07T02:13:08;4.60;87.10
23560;DHT22;11958;50.836;4.438;2024-03-07T02:15:34;4.60;87.40
23560;DHT22;11958;50.836;4.438;2024-03-07T02:17:59;4.30;87.40
23560;DHT22;11958;50.836;4.438;2024-03-07T02:20:25;4.40;87.40
23560;DHT22;11958;50.836;4.438;2024-03-07T02:22:54;4.30;88.30
23560;DHT22;11958;50.836;4.438;2024-03-07T02:25:19;4.40;88.20
23560;DHT22;11958;50.836;4.438;2024-03-07T02:27:45;4.50;87.60
23560;DHT22;11958;50.836;4.438;2024-03-07T02:30:11;4.70;87.60
23560;DHT22;11958;50.836;4.438;2024-03-07T02:32:38;4.60;87.40
23560;DHT22;11958;50.836;4.438;2024-03-07T02:35:04;4.10;88.20
23560;DHT22;11958;50.836;4.438;2024-03-07T02:37:31;4.30;88.20
23560;DHT22;11958;50.836;4.438;2024-03-07T02:39:56;4.30;87.90
23560;DHT22;11958;50.836;4.438;2024-03-07T02:42:22;4.30;88.30
23560;DHT22;11958;50.836;4.438;2024-03-07T02:44:48;4.20;88.40
23560;DHT22;11958;50.836;4.438;2024-03-07T02:47:14;4.20;88.90
23560;DHT22;11958;50.836;4.438;2024-03-07T02:49:40;4.10;89.20
23560;DHT22;11958;50.836;4.438;2024-03-07T02:52:06;4.10;89.20
23560;DHT22;11958;50.836;4.438;2024-03-07T02:54:33;4.20;88.90
23560;DHT22;11958;50.836;4.438;2024-03-07T02:56:59;4.20;88.70
23560;DHT22;11958;50.836;4.438;2024-03-07T02:59:25;4.30;88.80
23560;DHT22;11958;50.836;4.438;2024-03-07T03:01:51;4.20;89.20
23560;DHT22;11958;50.836;4.438;2024-03-07T03:04:16;4.20;88.70
23560;DHT22;11958;50.836;4.438;2024-03-07T03:06:43;3.70;89.30
23560;DHT22;11958;50.836;4.438;2024-03-07T03:09:08;3.90;89.70
23560;DHT22;11958;50.836;4.438;2024-03-07T03:11:38;3.80;90.00
23560;DHT22;11958;50.836;4.438;2024-03-07T03:14:04;3.90;90.00
23560;DHT22;11958;50.836;4.438;2024-03-07T03:16:30;3.80;90.60
23560;DHT22;11958;50.836;4.438;2024-03-07T03:18:56;3.70;90.90
23560;DHT22;11958;50.836;4.438;2024-03-07T03:21:23;3.60;90.80
23560;DHT22;11958;50.836;4.438;2024-03-07T03:23:49;3.80;90.80
23560;DHT22;11958;50.836;4.438;2024-03-07T03:26:14;3.90;90.10
23560;DHT22;11958;50.836;4.438;2024-03-07T03:28:41;3.70;90.00
23560;DHT22;11958;50.836;4.438;2024-03-07T03:31:07;3.70;89.90
23560;DHT22;11958;50.836;4.438;2024-03-07T03:33:33;4.10;90.40
23560;DHT22;11958;50.836;4.438;2024-03-07T03:35:59;4.20;89.20
23560;DHT22;11958;50.836;4.438;2024-03-07T03:38:25;4.30;89.00
23560;DHT22;11958;50.836;4.438;2024-03-07T03:40:51;3.90;89.00
23560;DHT22;11958;50.836;4.438;2024-03-07T03:43:16;3.60;89.50
23560;DHT22;11958;50.836;4.438;2024-03-07T03:45:42;3.60;90.30
23560;DHT22;11958;50.836;4.438;2024-03-07T03:48:08;3.50;90.70
23560;DHT22;11958;50.836;4.438;2024-03-07T03:50:34;3.30;91.20
23560;DHT22;11958;50.836;4.438;2024-03-07T03:52:59;3.50;91.50
23560;DHT22;11958;50.836;4.438;2024-03-07T03:55:27;3.40;91.50
23560;DHT22;11958;50.836;4.438;2024-03-07T03:57:53;3.60;91.00
23560;DHT22;11958;50.836;4.438;2024-03-07T04:00:18;3.60;90.80
23560;DHT22;11958;50.836;4.438;2024-03-07T04:02:47;3.50;91.00
23560;DHT22;11958;50.836;4.438;2024-03-07T04:05:15;3.70;90.90
23560;DHT22;11958;50.836;4.438;2024-03-07T04:07:41;3.60;89.90
23560;DHT22;11958;50.836;4.438;2024-03-07T04:10:07;3.60;89.90
23560;DHT22;11958;50.836;4.438;2024-03-07T04:12:38;3.70;89.50
23560;DHT22;11958;50.836;4.438;2024-03-07T04:15:08;3.80;89.70
23560;DHT22;11958;50.836;4.438;2024-03-07T04:17:38;3.70;90.10
23560;DHT22;11958;50.836;4.438;2024-03-07T04:20:05;3.80;89.20
23560;DHT22;11958;50.836;4.438;2024-03-07T04:22:32;3.60;89.50
23560;DHT22;11958;50.836;4.438;2024-03-07T04:24:58;3.80;89.30
23560;DHT22;11958;50.836;4.438;2024-03-07T04:27:24;3.90;89.70
23560;DHT22;11958;50.836;4.438;2024-03-07T04:29:51;4.00;90.20
23560;DHT22;11958;50.836;4.438;2024-03-07T04:32:17;4.00;89.80
23560;DHT22;11958;50.836;4.438;2024-03-07T04:37:43;3.70;90.40
23560;DHT22;11958;50.836;4.438;2024-03-07T04:40:10;3.70;90.20
23560;DHT22;11958;50.836;4.438;2024-03-07T04:42:43;3.60;90.70
23560;DHT22;11958;50.836;4.438;2024-03-07T04:45:10;3.60;90.70
23560;DHT22;11958;50.836;4.438;2024-03-07T04:47:43;3.40;90.80
23560;DHT22;11958;50.836;4.438;2024-03-07T04:50:13;3.50;91.00
23560;DHT22;11958;50.836;4.438;2024-03-07T04:52:39;3.50;91.30
23560;DHT22;11958;50.836;4.438;2024-03-07T04:55:06;3.60;90.80
23560;DHT22;11958;50.836;4.438;2024-03-07T04:57:37;3.60;90.80
23560;DHT22;11958;50.836;4.438;2024-03-07T05:00:08;3.60;91.00
23560;DHT22;11958;50.836;4.438;2024-03-07T05:02:41;3.70;90.70
23560;DHT22;11958;50.836;4.438;2024-03-07T05:05:07;3.70;90.40
23560;DHT22;11958;50.836;4.438;2024-03-07T05:07:33;3.70;90.60
23560;DHT22;11958;50.836;4.438;2024-03-07T05:10:02;3.40;90.90
23560;DHT22;11958;50.836;4.438;2024-03-07T05:12:28;3.60;91.10
23560;DHT22;11958;50.836;4.438;2024-03-07T05:14:53;3.80;91.00
23560;DHT22;11958;50.836;4.438;2024-03-07T05:17:19;3.80;91.10
23560;DHT22;11958;50.836;4.438;2024-03-07T05:19:45;3.70;91.00
23560;DHT22;11958;50.836;4.438;2024-03-07T05:22:11;3.80;91.40
23560;DHT22;11958;50.836;4.438;2024-03-07T05:24:41;4.10;90.70
23560;DHT22;11958;50.836;4.438;2024-03-07T05:27:08;3.90;90.40
23560;DHT22;11958;50.836;4.438;2024-03-07T05:29:37;4.00;90.90
23560;DHT22;11958;50.836;4.438;2024-03-07T05:32:22;4.20;91.70
23560;DHT22;11958;50.836;4.438;2024-03-07T05:34:48;4.50;92.40
23560;DHT22;11958;50.836;4.438;2024-03-07T05:37:13;4.40;91.90
23560;DHT22;11958;50.836;4.438;2024-03-07T05:39:39;4.90;91.70
23560;DHT22;11958;50.836;4.438;2024-03-07T05:42:05;4.90;92.20
23560;DHT22;11958;50.836;4.438;2024-03-07T05:44:32;5.00;92.10
23560;DHT22;11958;50.836;4.438;2024-03-07T05:46:58;5.00;92.10
23560;DHT22;11958;50.836;4.438;2024-03-07T05:49:24;5.20;91.80
23560;DHT22;11958;50.836;4.438;2024-03-07T05:51:50;5.00;92.00
23560;DHT22;11958;50.836;4.438;2024-03-07T05:54:15;5.00;92.30
23560;DHT22;11958;50.836;4.438;2024-03-07T05:56:41;5.00;92.60
23560;DHT22;11958;50.836;4.438;2024-03-07T05:59:08;4.90;92.80
23560;DHT22;11958;50.836;4.438;2024-03-07T06:01:38;5.20;93.30
23560;DHT22;11958;50.836;4.438;2024-03-07T06:04:05;5.60;92.80
23560;DHT22;11958;50.836;4.438;2024-03-07T06:06:33;5.60;91.60
23560;DHT22;11958;50.836;4.438;2024-03-07T06:09:08;5.30;92.00
23560;DHT22;11958;50.836;4.438;2024-03-07T06:11:35;5.10;92.50
23560;DHT22;11958;50.836;4.438;2024-03-07T06:14:02;5.30;92.50
23560;DHT22;11958;50.836;4.438;2024-03-07T06:16:31;5.30;92.40
23560;DHT22;11958;50.836;4.438;2024-03-07T06:18:59;5.20;92.50
23560;DHT22;11958;50.836;4.438;2024-03-07T06:21:25;5.40;92.40
23560;DHT22;11958;50.836;4.438;2024-03-07T06:23:51;5.80;92.60
23560;DHT22;11958;50.836;4.438;2024-03-07T06:26:28;5.50;91.80
23560;DHT22;11958;50.836;4.438;2024-03-07T06:29:11;5.50;92.00
23560;DHT22;11958;50.836;4.438;2024-03-07T06:31:37;5.20;93.30
23560;DHT22;11958;50.836;4.438;2024-03-07T06:34:03;5.70;92.90
23560;DHT22;11958;50.836;4.438;2024-03-07T06:36:29;5.50;92.90
23560;DHT22;11958;50.836;4.438;2024-03-07T06:38:55;5.80;92.70
23560;DHT22;11958;50.836;4.438;2024-03-07T06:41:21;5.70;92.80
23560;DHT22;11958;50.836;4.438;2024-03-07T06:43:46;5.60;92.90
23560;DHT22;11958;50.836;4.438;2024-03-07T06:46:12;5.80;92.80
23560;DHT22;11958;50.836;4.438;2024-03-07T06:48:39;5.40;93.00
23560;DHT22;11958;50.836;4.438;2024-03-07T06:51:07;5.70;92.80
23560;DHT22;11958;50.836;4.438;2024-03-07T06:53:33;5.60;93.30
23560;DHT22;11958;50.836;4.438;2024-03-07T06:55:59;5.70;93.50
23560;DHT22;11958;50.836;4.438;2024-03-07T06:58:25;5.40;93.40
23560;DHT22;11958;50.836;4.438;2024-03-07T07:00:52;5.80;93.70
23560;DHT22;11958;50.836;4.438;2024-03-07T07:03:20;6.00;93.20
23560;DHT22;11958;50.836;4.438;2024-03-07T07:05:46;6.20;92.30
23560;DHT22;11958;50.836;4.438;2024-03-07T07:08:12;6.40;90.30
23560;DHT22;11958;50.836;4.438;2024-03-07T07:10:39;6.30;90.40
23560;DHT22;11958;50.836;4.438;2024-03-07T07:13:06;6.00;91.10
23560;DHT22;11958;50.836;4.438;2024-03-07T07:15:32;6.10;91.60
23560;DHT22;11958;50.836;4.438;2024-03-07T07:17:58;6.30;91.50
23560;DHT22;11958;50.836;4.438;2024-03-07T07:20:24;6.30;90.30
23560;DHT22;11958;50.836;4.438;2024-03-07T07:22:50;6.20;90.50
23560;DHT22;11958;50.836;4.438;2024-03-07T07:25:18;6.40;90.50
23560;DHT22;11958;50.836;4.438;2024-03-07T07:27:50;6.10;90.70
23560;DHT22;11958;50.836;4.438;2024-03-07T07:30:18;5.80;91.40
23560;DHT22;11958;50.836;4.438;2024-03-07T07:32:45;6.30;91.10
23560;DHT22;11958;50.836;4.438;2024-03-07T07:35:12;6.20;90.90
23560;DHT22;11958;50.836;4.438;2024-03-07T07:37:41;6.20;90.70
23560;DHT22;11958;50.836;4.438;2024-03-07T07:40:08;6.10;90.20
23560;DHT22;11958;50.836;4.438;2024-03-07T07:42:42;5.90;90.50
23560;DHT22;11958;50.836;4.438;2024-03-07T07:45:09;5.80;92.20
23560;DHT22;11958;50.836;4.438;2024-03-07T07:47:46;5.90;91.10
23560;DHT22;11958;50.836;4.438;2024-03-07T07:50:13;5.90;91.00
23560;DHT22;11958;50.836;4.438;2024-03-07T07:52:46;6.00;90.50
23560;DHT22;11958;50.836;4.438;2024-03-07T07:57:47;5.80;91.40
23560;DHT22;11958;50.836;4.438;2024-03-07T08:00:15;6.00;91.50
23560;DHT22;11958;50.836;4.438;2024-03-07T08:03:05;6.10;91.50
23560;DHT22;11958;50.836;4.438;2024-03-07T08:05:35;6.20;90.90
23560;DHT22;11958;50.836;4.438;2024-03-07T08:08:03;6.30;90.70
23560;DHT22;11958;50.836;4.438;2024-03-07T08:10:30;6.10;90.30
23560;DHT22;11958;50.836;4.438;2024-03-07T08:13:00;6.10;90.40
23560;DHT22;11958;50.836;4.438;2024-03-07T08:15:28;6.10;90.60
23560;DHT22;11958;50.836;4.438;2024-03-07T08:17:54;6.50;89.90
23560;DHT22;11958;50.836;4.438;2024-03-07T08:20:24;6.60;89.80
23560;DHT22;11958;50.836;4.438;2024-03-07T08:22:52;6.60;89.20
23560;DHT22;11958;50.836;4.438;2024-03-07T08:25:20;6.60;89.60
23560;DHT22;11958;50.836;4.438;2024-03-07T08:27:48;7.00;89.50
23560;DHT22;11958;50.836;4.438;2024-03-07T08:30:14;7.00;87.90
23560;DHT22;11958;50.836;4.438;2024-03-07T08:32:41;7.30;88.20
23560;DHT22;11958;50.836;4.438;2024-03-07T08:35:08;7.50;86.60
23560;DHT22;11958;50.836;4.438;2024-03-07T08:37:45;7.70;85.70
23560;DHT22;11958;50.836;4.438;2024-03-07T08:40:12;7.50;86.00
23560;DHT22;11958;50.836;4.438;2024-03-07T08:42:48;7.80;85.10
23560;DHT22;11958;50.836;4.438;2024-03-07T08:45:16;7.30;86.30
23560;DHT22;11958;50.836;4.438;2024-03-07T08:47:45;7.40;85.70
23560;DHT22;11958;50.836;4.438;2024-03-07T08:50:12;7.40;85.50
23560;DHT22;11958;50.836;4.438;2024-03-07T08:52:39;6.90;86.20
23560;DHT22;11958;50.836;4.438;2024-03-07T08:55:06;7.00;86.50
23560;DHT22;11958;50.836;4.438;2024-03-07T08:57:35;6.90;86.10
23560;DHT22;11958;50.836;4.438;2024-03-07T09:00:02;7.10;86.60
23560;DHT22;11958;50.836;4.438;2024-03-07T09:02:34;7.20;86.90
23560;DHT22;11958;50.836;4.438;2024-03-07T09:05:03;7.20;86.90
23560;DHT22;11958;50.836;4.438;2024-03-07T09:07:29;7.50;86.50
23560;DHT22;11958;50.836;4.438;2024-03-07T09:09:55;7.40;85.60
23560;DHT22;11958;50.836;4.438;2024-03-07T09:12:21;7.30;85.50
23560;DHT22;11958;50.836;4.438;2024-03-07T09:14:46;7.10;86.00
23560;DHT22;11958;50.836;4.438;2024-03-07T09:17:12;7.00;86.60
23560;DHT22;11958;50.836;4.438;2024-03-07T09:19:38;7.10;86.50
23560;DHT22;11958;50.836;4.438;2024-03-07T09:22:04;6.90;86.90
23560;DHT22;11958;50.836;4.438;2024-03-07T09:24:30;6.90;87.20
23560;DHT22;11958;50.836;4.438;2024-03-07T09:26:56;7.10;87.00
23560;DHT22;11958;50.836;4.438;2024-03-07T09:29:23;7.50;85.70
23560;DHT22;11958;50.836;4.438;2024-03-07T09:31:51;7.50;86.00
23560;DHT22;11958;50.836;4.438;2024-03-07T09:34:18;7.50;86.00
23560;DHT22;11958;50.836;4.438;2024-03-07T09:36:46;8.00;86.00
23560;DHT22;11958;50.836;4.438;2024-03-07T09:39:11;8.30;83.90
23560;DHT22;11958;50.836;4.438;2024-03-07T09:41:40;8.70;82.50
23560;DHT22;11958;50.836;4.438;2024-03-07T09:44:15;8.70;82.30
23560;DHT22;11958;50.836;4.438;2024-03-07T09:46:47;8.90;81.30
23560;DHT22;11958;50.836;4.438;2024-03-07T09:49:14;9.10;80.40
23560;DHT22;11958;50.836;4.438;2024-03-07T09:51:40;9.20;80.90
23560;DHT22;11958;50.836;4.438;2024-03-07T09:54:05;9.30;79.40
23560;DHT22;11958;50.836;4.438;2024-03-07T09:56:31;9.10;79.10
23560;DHT22;11958;50.836;4.438;2024-03-07T09:58:58;8.80;80.10
23560;DHT22;11958;50.836;4.438;2024-03-07T10:01:36;8.80;80.10
23560;DHT22;11958;50.836;4.438;2024-03-07T10:04:05;8.80;80.10
23560;DHT22;11958;50.836;4.438;2024-03-07T10:06:43;8.80;79.90
23560;DHT22;11958;50.836;4.438;2024-03-07T10:09:13;8.80;80.90
23560;DHT22;11958;50.836;4.438;2024-03-07T10:11:40;9.20;80.10
23560;DHT22;11958;50.836;4.438;2024-03-07T10:14:07;9.50;79.70
23560;DHT22;11958;50.836;4.438;2024-03-07T10:16:33;9.70;77.00
23560;DHT22;11958;50.836;4.438;2024-03-07T10:18:59;9.80;76.60
23560;DHT22;11958;50.836;4.438;2024-03-07T10:21:27;9.50;77.20
23560;DHT22;11958;50.836;4.438;2024-03-07T10:24:08;9.30;77.90
23560;DHT22;11958;50.836;4.438;2024-03-07T10:26:35;9.20;79.20
23560;DHT22;11958;50.836;4.438;2024-03-07T10:29:01;9.20;79.30
23560;DHT22;11958;50.836;4.438;2024-03-07T10:31:28;9.30;79.40
23560;DHT22;11958;50.836;4.438;2024-03-07T10:34:01;9.40;79.20
23560;DHT22;11958;50.836;4.438;2024-03-07T10:36:33;9.20;79.20
23560;DHT22;11958;50.836;4.438;2024-03-07T10:39:02;9.60;79.10
23560;DHT22;11958;50.836;4.438;2024-03-07T10:41:47;9.80;77.60
23560;DHT22;11958;50.836;4.438;2024-03-07T10:44:20;9.80;77.40
23560;DHT22;11958;50.836;4.438;2024-03-07T10:46:53;9.90;77.60
23560;DHT22;11958;50.836;4.438;2024-03-07T10:49:20;10.00;77.30
23560;DHT22;11958;50.836;4.438;2024-03-07T10:54:43;10.00;77.70
23560;DHT22;11958;50.836;4.438;2024-03-07T10:57:58;10.00;78.10
23560;DHT22;11958;50.836;4.438;2024-03-07T11:00:26;10.00;77.90
23560;DHT22;11958;50.836;4.438;2024-03-07T11:02:57;10.10;77.70
23560;DHT22;11958;50.836;4.438;2024-03-07T11:05:26;10.40;75.90
23560;DHT22;11958;50.836;4.438;2024-03-07T11:08:01;10.40;75.50
23560;DHT22;11958;50.836;4.438;2024-03-07T11:10:36;10.20;75.60
23560;DHT22;11958;50.836;4.438;2024-03-07T11:13:04;10.70;74.20
23560;DHT22;11958;50.836;4.438;2024-03-07T11:15:33;10.60;73.60
23560;DHT22;11958;50.836;4.438;2024-03-07T11:17:59;10.60;74.50
23560;DHT22;11958;50.836;4.438;2024-03-07T11:20:36;10.90;73.30
23560;DHT22;11958;50.836;4.438;2024-03-07T11:23:31;11.20;73.20
23560;DHT22;11958;50.836;4.438;2024-03-07T11:26:08;11.60;71.00
23560;DHT22;11958;50.836;4.438;2024-03-07T11:28:38;12.10;67.50
23560;DHT22;11958;50.836;4.438;2024-03-07T11:33:40;12.30;67.30
23560;DHT22;11958;50.836;4.438;2024-03-07T11:36:10;12.40;65.90
23560;DHT22;11958;50.836;4.438;2024-03-07T11:38:47;12.30;66.20
23560;DHT22;11958;50.836;4.438;2024-03-07T11:41:13;13.10;62.90
23560;DHT22;11958;50.836;4.438;2024-03-07T11:43:40;13.00;61.60
23560;DHT22;11958;50.836;4.438;2024-03-07T11:46:08;13.40;59.70
23560;DHT22;11958;50.836;4.438;2024-03-07T11:48:40;13.70;57.60
23560;DHT22;11958;50.836;4.438;2024-03-07T11:51:13;13.50;58.10
23560;DHT22;11958;50.836;4.438;2024-03-07T11:53:39;13.30;58.10
23560;DHT22;11958;50.836;4.438;2024-03-07T11:56:05;12.80;57.20
23560;DHT22;11958;50.836;4.438;2024-03-07T11:58:38;12.30;60.90
23560;DHT22;11958;50.836;4.438;2024-03-07T12:01:06;12.40;62.30
23560;DHT22;11958;50.836;4.438;2024-03-07T12:03:36;12.50;59.40
23560;DHT22;11958;50.836;4.438;2024-03-07T12:06:03;12.60;61.10
23560;DHT22;11958;50.836;4.438;2024-03-07T12:08:32;12.60;61.10
23560;DHT22;11958;50.836;4.438;2024-03-07T12:11:01;13.00;58.80
23560;DHT22;11958;50.836;4.438;2024-03-07T12:13:29;13.30;57.00
23560;DHT22;11958;50.836;4.438;2024-03-07T12:15:54;13.00;57.50
23560;DHT22;11958;50.836;4.438;2024-03-07T12:18:22;13.00;56.70
23560;DHT22;11958;50.836;4.438;2024-03-07T12:20:48;13.10;57.20
23560;DHT22;11958;50.836;4.438;2024-03-07T12:23:22;14.50;53.70
23560;DHT22;11958;50.836;4.438;2024-03-07T12:25:59;15.30;51.50
23560;DHT22;11958;50.836;4.438;2024-03-07T12:28:26;16.00;46.30
23560;DHT22;11958;50.836;4.438;2024-03-07T12:30:54;15.80;46.60
23560;DHT22;11958;50.836;4.438;2024-03-07T12:33:22;17.10;44.50
23560;DHT22;11958;50.836;4.438;2024-03-07T12:35:51;17.90;42.90
23560;DHT22;11958;50.836;4.438;2024-03-07T12:38:20;16.60;44.40
23560;DHT22;11958;50.836;4.438;2024-03-07T12:41:01;16.90;44.60
23560;DHT22;11958;50.836;4.438;2024-03-07T12:43:31;17.10;44.60
23560;DHT22;11958;50.836;4.438;2024-03-07T12:45:57;18.30;41.00
23560;DHT22;11958;50.836;4.438;2024-03-07T12:48:24;19.00;39.70
23560;DHT22;11958;50.836;4.438;2024-03-07T12:50:51;18.30;38.80
23560;DHT22;11958;50.836;4.438;2024-03-07T12:53:21;16.00;43.40
23560;DHT22;11958;50.836;4.438;2024-03-07T12:55:48;16.10;43.40
23560;DHT22;11958;50.836;4.438;2024-03-07T12:58:15;16.00;45.70
23560;DHT22;11958;50.836;4.438;2024-03-07T13:00:41;17.40;42.00
23560;DHT22;11958;50.836;4.438;2024-03-07T13:03:08;18.10;40.20
23560;DHT22;11958;50.836;4.438;2024-03-07T13:05:39;18.30;38.80
23560;DHT22;11958;50.836;4.438;2024-03-07T13:08:06;17.60;41.60
23560;DHT22;11958;50.836;4.438;2024-03-07T13:10:42;17.70;41.20
23560;DHT22;11958;50.836;4.438;2024-03-07T13:13:08;18.00;39.50
23560;DHT22;11958;50.836;4.438;2024-03-07T13:15:39;18.70;38.00
23560;DHT22;11958;50.836;4.438;2024-03-07T13:18:05;19.30;36.70
23560;DHT22;11958;50.836;4.438;2024-03-07T13:20:32;19.40;35.60
23560;DHT22;11958;50.836;4.438;2024-03-07T13:22:57;19.00;35.80
23560;DHT22;11958;50.836;4.438;2024-03-07T13:25:26;18.80;35.80
23560;DHT22;11958;50.836;4.438;2024-03-07T13:27:59;17.70;38.60
23560;DHT22;11958;50.836;4.438;2024-03-07T13:30:25;17.70;38.70
23560;DHT22;11958;50.836;4.438;2024-03-07T13:32:58;17.70;38.90
23560;DHT22;11958;50.836;4.438;2024-03-07T13:35:24;16.90;39.40
23560;DHT22;11958;50.836;4.438;2024-03-07T13:37:52;16.40;41.00
23560;DHT22;11958;50.836;4.438;2024-03-07T13:40:23;17.50;39.10
23560;DHT22;11958;50.836;4.438;2024-03-07T13:42:55;18.60;36.80
23560;DHT22;11958;50.836;4.438;2024-03-07T13:45:29;18.70;35.80
23560;DHT22;11958;50.836;4.438;2024-03-07T13:47:57;18.10;37.60
23560;DHT22;11958;50.836;4.438;2024-03-07T13:50:26;18.00;37.40
23560;DHT22;11958;50.836;4.438;2024-03-07T13:52:55;18.60;35.60
23560;DHT22;11958;50.836;4.438;2024-03-07T14:05:10;18.50;36.50
23560;DHT22;11958;50.836;4.438;2024-03-07T14:25:20;15.90;39.90
23560;DHT22;11958;50.836;4.438;2024-03-07T14:28:11;16.00;38.80
23560;DHT22;11958;50.836;4.438;2024-03-07T14:30:44;16.70;37.60
23560;DHT22;11958;50.836;4.438;2024-03-07T14:33:17;16.60;38.00
23560;DHT22;11958;50.836;4.438;2024-03-07T14:36:03;16.90;36.90
23560;DHT22;11958;50.836;4.438;2024-03-07T14:38:43;16.80;37.10
23560;DHT22;11958;50.836;4.438;2024-03-07T14:41:12;16.80;36.50
23560;DHT22;11958;50.836;4.438;2024-03-07T14:43:40;16.90;37.00
23560;DHT22;11958;50.836;4.438;2024-03-07T14:46:14;16.80;38.10
23560;DHT22;11958;50.836;4.438;2024-03-07T14:48:41;16.70;37.80
23560;DHT22;11958;50.836;4.438;2024-03-07T14:51:08;16.30;37.80
23560;DHT22;11958;50.836;4.438;2024-03-07T14:53:35;16.20;38.00
23560;DHT22;11958;50.836;4.438;2024-03-07T14:56:01;15.60;38.60
23560;DHT22;11958;50.836;4.438;2024-03-07T14:58:27;15.60;39.50
23560;DHT22;11958;50.836;4.438;2024-03-07T15:00:52;15.20;41.00
23560;DHT22;11958;50.836;4.438;2024-03-07T15:03:20;15.20;41.40
23560;DHT22;11958;50.836;4.438;2024-03-07T15:05:46;15.00;41.50
23560;DHT22;11958;50.836;4.438;2024-03-07T15:08:16;14.60;41.70
23560;DHT22;11958;50.836;4.438;2024-03-07T15:13:38;15.50;38.10
23560;DHT22;11958;50.836;4.438;2024-03-07T15:16:05;16.00;37.70
23560;DHT22;11958;50.836;4.438;2024-03-07T15:18:35;15.80;37.40
23560;DHT22;11958;50.836;4.438;2024-03-07T15:21:01;16.00;37.60
23560;DHT22;11958;50.836;4.438;2024-03-07T15:23:26;16.50;37.10
23560;DHT22;11958;50.836;4.438;2024-03-07T15:25:52;16.50;36.60
23560;DHT22;11958;50.836;4.438;2024-03-07T15:28:18;16.10;38.00
23560;DHT22;11958;50.836;4.438;2024-03-07T15:30:46;15.60;38.10
23560;DHT22;11958;50.836;4.438;2024-03-07T15:33:12;15.30;39.80
23560;DHT22;11958;50.836;4.438;2024-03-07T15:35:41;14.90;40.10
23560;DHT22;11958;50.836;4.438;2024-03-07T15:38:06;14.90;40.30
23560;DHT22;11958;50.836;4.438;2024-03-07T15:40:34;15.00;39.60
23560;DHT22;11958;50.836;4.438;2024-03-07T15:43:00;14.50;39.40
23560;DHT22;11958;50.836;4.438;2024-03-07T15:45:33;13.80;41.50
23560;DHT22;11958;50.836;4.438;2024-03-07T15:47:59;13.90;42.30
23560;DHT22;11958;50.836;4.438;2024-03-07T15:50:30;13.50;42.70
23560;DHT22;11958;50.836;4.438;2024-03-07T15:52:57;13.10;44.00
23560;DHT22;11958;50.836;4.438;2024-03-07T15:55:25;12.50;46.30
23560;DHT22;11958;50.836;4.438;2024-03-07T15:57:55;12.60;47.50
23560;DHT22;11958;50.836;4.438;2024-03-07T16:00:26;12.50;47.60
23560;DHT22;11958;50.836;4.438;2024-03-07T16:02:59;12.70;47.30
23560;DHT22;11958;50.836;4.438;2024-03-07T16:05:27;12.30;48.10
23560;DHT22;11958;50.836;4.438;2024-03-07T16:07:54;12.30;48.30
23560;DHT22;11958;50.836;4.438;2024-03-07T16:10:27;12.20;47.60
23560;DHT22;11958;50.836;4.438;2024-03-07T16:12:57;12.10;48.30
23560;DHT22;11958;50.836;4.438;2024-03-07T16:15:23;12.10;48.10
23560;DHT22;11958;50.836;4.438;2024-03-07T16:17:50;12.10;48.40
23560;DHT22;11958;50.836;4.438;2024-03-07T16:20:15;12.00;48.90
23560;DHT22;11958;50.836;4.438;2024-03-07T16:22:44;12.10;48.50
23560;DHT22;11958;50.836;4.438;2024-03-07T16:25:11;12.10;48.50
23560;DHT22;11958;50.836;4.438;2024-03-07T16:27:38;12.30;48.00